Bookmark and Share
Track history (hours):
 

Norfolk

More information available from US FCC via Universal Licensing System and Coast Guard Vessel Documentation Center.

Last reported at 2014-Apr-21 02:33 UTC. Time now 2014-Apr-21 03:08 UTC.
Position N 36°54' W 076°05'.

Length 18 m; draft 1.5 m.

Type: Pilot. MMSI: 367512630.

NotesDate/timePositionNaut miles runAvg speedWind from/ knotsBaromVisibWave heightAir tempDewpointWater temp
2014-Apr-21 02:33N 36°54' W 076°05'0 0.0
2014-Apr-21 01:33N 36°54' W 076°05'0 0.0
2014-Apr-21 00:33N 36°54' W 076°05'0 0.0
2014-Apr-20 23:33N 36°54' W 076°05'0 0.0
2014-Apr-20 22:33N 36°54' W 076°05'0 0.0
2014-Apr-20 21:33N 36°54' W 076°05'0 0.0
2014-Apr-20 20:33N 36°54' W 076°05'0 0.0
2014-Apr-20 19:33N 36°54' W 076°05'0 0.0
2014-Apr-20 18:31N 36°54' W 076°05'6 6.3
2014-Apr-20 17:33N 37°00' W 076°03'5 4.9
2014-Apr-20 16:33N 36°57' W 075°58'6 5.6
2014-Apr-20 15:30N 36°54' W 076°05'0 0.0
2014-Apr-20 14:33N 36°54' W 076°05'9 8.7
2014-Apr-20 13:34N 37°03' W 076°05'5 5.1
2014-Apr-20 12:31N 37°08' W 076°05'14 0.9
2014-Apr-19 21:25N 36°54' W 076°05'0 0.0
2014-Apr-19 17:12N 36°55' W 076°06'7 1.5
2014-Apr-19 12:12N 36°56' W 075°56'7 3.6
2014-Apr-19 10:08N 36°54' W 076°05'2 2.9
2014-Apr-19 09:22N 36°56' W 076°03'6 3.0
2014-Apr-19 07:26N 36°57' W 075°56'8 7.4
2014-Apr-19 06:24N 36°54' W 076°05'1 0.9
2014-Apr-19 05:11N 36°55' W 076°05'3 1.8
2014-Apr-19 03:20N 36°57' W 076°01'4 4.4
2014-Apr-19 02:23N 36°54' W 076°05'0 0.0
2014-Apr-19 01:31N 36°54' W 076°05'0 0.0
2014-Apr-19 00:22N 36°54' W 076°05'6 7.5
2014-Apr-18 23:33N 37°00' W 076°04'6 4.5
2014-Apr-18 22:10N 36°57' W 075°57'711.4
2014-Apr-18 21:33N 36°54' W 076°05'0 0.0
2014-Apr-18 20:33N 36°54' W 076°05'0 0.0
2014-Apr-18 19:33N 36°54' W 076°05'5 1.7
2014-Apr-18 16:33N 36°56' W 075°60'5 5.1
2014-Apr-18 15:33N 36°54' W 076°05'0 0.0
2014-Apr-18 12:32N 36°54' W 076°05'1412.2
2014-Apr-18 11:24N 37°08' W 076°05'14 0.7
2014-Apr-17 16:21N 36°54' W 076°05'810.1
2014-Apr-17 15:31N 37°03' W 076°08'2 1.1
2014-Apr-17 13:23N 37°00' W 076°07'10 0.6
2014-Apr-16 19:23N 36°55' W 075°56'7 1.7
2014-Apr-16 15:06N 36°54' W 076°05'3 0.2
2014-Apr-16 01:33N 36°57' W 076°04'13 2.3
2014-Apr-15 20:07N 37°09' W 076°06'0 0.5
2014-Apr-15 19:33N 37°09' W 076°06'8 8.0
2014-Apr-15 18:33N 37°01' W 076°06'5 4.8
2014-Apr-15 17:33N 37°06' W 076°04'1111.4
2014-Apr-15 16:33N 36°54' W 076°05'0 0.0
2014-Apr-15 15:33N 36°54' W 076°05'0 0.0
2014-Apr-15 14:33N 36°54' W 076°05'0 0.0
2014-Apr-15 12:31N 36°54' W 076°05'0 0.0
2014-Apr-15 11:34N 36°54' W 076°05'0 0.0
2014-Apr-15 10:34N 36°54' W 076°05'0 0.0
2014-Apr-15 09:34N 36°54' W 076°05'6 5.6
2014-Apr-15 08:34N 36°56' W 075°59'6 5.7
2014-Apr-15 07:34N 36°54' W 076°05'0 0.0
2014-Apr-15 06:34N 36°54' W 076°05'7 6.9
2014-Apr-15 05:34N 36°55' W 075°57'7 3.4
2014-Apr-15 03:34N 36°54' W 076°05'0 0.0
2014-Apr-15 02:32N 36°54' W 076°05'0 0.0
2014-Apr-15 01:34N 36°54' W 076°05'0 0.0
2014-Apr-15 00:34N 36°54' W 076°05'0 0.0
2014-Apr-14 23:33N 36°54' W 076°05'6 6.5
2014-Apr-14 22:34N 36°57' W 075°58'7 7.1
2014-Apr-14 21:33N 37°02' W 076°04'2 1.7
2014-Apr-14 20:33N 37°00' W 076°05'8 7.8
2014-Apr-14 19:32N 36°56' W 075°56'6 6.4
2014-Apr-14 18:33N 36°56' W 076°04'2 2.0
2014-Apr-14 17:33N 36°54' W 076°05'0 0.0
2014-Apr-14 16:33N 36°54' W 076°05'0 0.0
2014-Apr-14 15:33N 36°54' W 076°05'0 0.0
2014-Apr-14 14:34N 36°54' W 076°05'3 3.3
2014-Apr-14 13:34N 36°57' W 076°04'1 0.1
2014-Apr-13 22:33N 36°58' W 076°02'5 4.6
2014-Apr-13 21:33N 36°56' W 075°57'4 4.1
2014-Apr-13 20:33N 36°56' W 076°02'3 3.0
2014-Apr-13 19:33N 36°54' W 076°05'5 5.0
2014-Apr-13 18:34N 36°56' W 075°59'5 4.9
2014-Apr-13 17:33N 36°54' W 076°05'0 0.0
2014-Apr-13 16:33N 36°54' W 076°05'0 0.0
2014-Apr-13 15:33N 36°54' W 076°05'1 1.0
2014-Apr-13 14:33N 36°55' W 076°05'1 1.0
2014-Apr-13 13:33N 36°54' W 076°05'0 0.0
2014-Apr-13 12:33N 36°54' W 076°05'4 4.0
2014-Apr-13 11:33N 36°56' W 076°01'4 4.1
2014-Apr-13 10:34N 36°54' W 076°05'0 0.0
2014-Apr-13 09:33N 36°54' W 076°05'0 0.0
2014-Apr-13 08:33N 36°54' W 076°05'2 1.5
2014-Apr-13 07:30N 36°56' W 076°04'1 0.5
2014-Apr-13 06:33N 36°55' W 076°05'1 1.2
2014-Apr-13 05:34N 36°54' W 076°05'0 0.1
2014-Apr-13 04:33N 36°54' W 076°05'0 0.0
2014-Apr-13 03:33N 36°54' W 076°05'0 0.0
2014-Apr-13 02:33N 36°54' W 076°05'0 0.0
2014-Apr-13 01:33N 36°54' W 076°05'0 0.0
2014-Apr-13 00:33N 36°54' W 076°05'0 0.0
2014-Apr-12 22:23N 36°54' W 076°05'6 7.1
2014-Apr-12 21:33N 36°56' W 075°58'6 5.8
2014-Apr-12 20:33N 36°54' W 076°05'0 0.0
2014-Apr-12 19:34N 36°54' W 076°05'0 0.0
2014-Apr-12 18:33N 36°54' W 076°05'0 0.0
2014-Apr-12 17:33N 36°54' W 076°05'2 0.9
2014-Apr-12 15:32N 36°56' W 076°05'5 3.4
2014-Apr-12 14:10N 37°01' W 076°04'6 2.7
2014-Apr-12 12:08N 36°55' W 076°05'2 3.5
2014-Apr-12 11:29N 36°56' W 076°03'  

Dump ship's entire track history

sailing weather and tide predictions

Norfolk — WDG2147 — position and weather